Time;durP1;ratioP1;P1;durP2;ratioP2;P2;SDS_P1;SDS_P2;PMS_P1;PMS_P2;Temp;Humidity;BMP_temperature;BMP_pressure;BME280_temperature;BME280_humidity;BME280_pressure;Samples;Min_cycle;Max_cycle;Signal;HPM_P1;HPM_P2
2023/12/18 00:01:52;;;;;;;9.60;8.30;;;2.10;99.90;;;;;;5031223;28;20233;-55
2023/12/18 00:04:19;;;;;;;9.57;8.03;;;2.20;99.90;;;;;;5032383;28;20236;-57
2023/12/18 00:06:47;;;;;;;8.93;8.03;;;2.20;99.90;;;;;;5031254;28;20226;-57
2023/12/18 00:09:14;;;;;;;8.70;7.63;;;2.10;99.90;;;;;;5040560;28;20613;-56
2023/12/18 00:11:40;;;;;;;8.90;7.67;;;2.20;99.90;;;;;;5022603;28;20249;-58
2023/12/18 00:14:07;;;;;;;8.63;7.60;;;2.30;99.90;;;;;;5030633;28;20206;-57
2023/12/18 00:16:34;;;;;;;8.60;7.70;;;2.30;99.90;;;;;;5030895;28;20647;-57
2023/12/18 00:19:01;;;;;;;9.40;7.90;;;2.30;99.90;;;;;;5030341;28;20664;-56
2023/12/18 00:21:27;;;;;;;8.37;7.23;;;2.30;99.90;;;;;;5030875;28;20575;-57
2023/12/18 00:23:55;;;;;;;8.87;7.30;;;2.20;99.90;;;;;;5030816;28;20301;-56
2023/12/18 00:26:23;;;;;;;8.77;7.87;;;2.30;99.90;;;;;;5030504;28;20210;-56
2023/12/18 00:28:49;;;;;;;9.00;7.93;;;2.20;99.90;;;;;;5036272;28;20205;-58
2023/12/18 00:31:16;;;;;;;8.60;7.37;;;2.20;99.90;;;;;;5037968;28;20222;-54
2023/12/18 00:33:43;;;;;;;9.00;7.87;;;2.20;99.90;;;;;;5040215;28;20534;-57
2023/12/18 00:36:09;;;;;;;9.80;7.83;;;2.30;99.90;;;;;;5030665;28;20249;-56
2023/12/18 00:38:37;;;;;;;9.53;8.37;;;2.30;99.90;;;;;;5030508;28;20657;-56
2023/12/18 00:41:05;;;;;;;9.43;7.60;;;2.20;99.90;;;;;;5042426;28;20233;-57
2023/12/18 00:43:32;;;;;;;9.13;7.97;;;2.30;99.90;;;;;;5034795;28;20206;-55
2023/12/18 00:45:59;;;;;;;9.10;7.67;;;2.20;99.90;;;;;;5035071;28;20208;-55
2023/12/18 00:48:25;;;;;;;10.63;8.30;;;2.20;99.90;;;;;;5034547;28;20229;-57
2023/12/18 00:50:52;;;;;;;11.73;8.60;;;2.20;99.90;;;;;;5033341;28;20221;-56
2023/12/18 00:53:18;;;;;;;11.00;8.77;;;2.20;99.90;;;;;;5039721;28;20216;-55
2023/12/18 00:55:45;;;;;;;10.00;8.53;;;2.10;99.90;;;;;;5040665;28;20629;-56
2023/12/18 00:58:13;;;;;;;10.10;8.03;;;2.10;99.90;;;;;;5035102;28;20204;-57
2023/12/18 01:00:40;;;;;;;11.33;8.97;;;2.10;99.90;;;;;;5038002;28;20226;-56
2023/12/18 01:03:06;;;;;;;11.77;8.53;;;2.10;99.90;;;;;;5041979;28;20610;-57
2023/12/18 01:05:33;;;;;;;11.73;8.77;;;2.10;99.90;;;;;;5033674;28;20218;-56
2023/12/18 01:08:00;;;;;;;11.30;8.23;;;2.10;99.90;;;;;;5034570;28;20233;-57
2023/12/18 01:10:26;;;;;;;11.77;8.67;;;2.00;99.90;;;;;;5043858;28;20232;-55
2023/12/18 01:12:53;;;;;;;10.03;7.80;;;2.10;99.90;;;;;;5054607;28;20658;-55
2023/12/18 01:15:21;;;;;;;10.60;8.17;;;2.10;99.90;;;;;;5054293;28;20209;-55
2023/12/18 01:17:48;;;;;;;11.07;8.40;;;2.10;99.90;;;;;;5054561;28;20272;-56
2023/12/18 01:20:14;;;;;;;11.57;8.70;;;2.20;99.90;;;;;;5054053;28;20745;-56
2023/12/18 01:22:41;;;;;;;11.90;9.03;;;2.20;99.90;;;;;;5054296;28;20201;-55
2023/12/18 01:25:08;;;;;;;14.83;9.60;;;2.20;99.90;;;;;;5054206;28;20206;-54
2023/12/18 01:27:35;;;;;;;14.23;10.63;;;2.20;99.90;;;;;;5054010;28;20225;-55
2023/12/18 01:30:02;;;;;;;13.67;9.97;;;2.30;99.90;;;;;;5053910;28;20198;-55
2023/12/18 01:32:32;;;;;;;20.47;13.53;;;2.30;99.90;;;;;;5054049;28;20206;-55
2023/12/18 01:34:59;;;;;;;14.53;10.93;;;2.40;99.90;;;;;;5054192;28;20262;-57
2023/12/18 01:37:25;;;;;;;19.67;13.40;;;2.40;99.90;;;;;;5053936;28;20206;-55
2023/12/18 01:39:52;;;;;;;17.23;12.83;;;2.40;99.90;;;;;;5053845;28;20205;-55
2023/12/18 01:42:19;;;;;;;16.60;12.60;;;2.50;99.90;;;;;;5053595;28;20316;-56
2023/12/18 01:44:46;;;;;;;10.17;8.20;;;2.50;99.90;;;;;;5054036;28;20208;-55
2023/12/18 01:47:13;;;;;;;11.47;8.63;;;2.50;99.90;;;;;;5053756;28;20652;-54
2023/12/18 01:49:41;;;;;;;11.73;8.40;;;2.50;99.90;;;;;;5053486;28;20220;-55
2023/12/18 01:52:08;;;;;;;14.40;8.47;;;2.40;99.90;;;;;;5053667;28;20218;-55
2023/12/18 01:54:35;;;;;;;9.43;8.00;;;2.40;99.90;;;;;;5053426;28;20654;-55
2023/12/18 01:57:03;;;;;;;9.63;7.90;;;2.40;99.90;;;;;;5053219;28;20614;-55
2023/12/18 01:59:33;;;;;;;14.67;10.40;;;2.40;99.90;;;;;;5053562;28;20256;-55
2023/12/18 02:02:00;;;;;;;12.87;9.73;;;2.40;99.90;;;;;;5053526;28;20221;-56
2023/12/18 02:04:27;;;;;;;11.47;9.80;;;2.50;99.90;;;;;;5053482;28;20201;-55
2023/12/18 02:06:58;;;;;;;12.23;8.70;;;2.40;99.90;;;;;;5053564;28;20201;-55
2023/12/18 02:09:24;;;;;;;10.50;9.17;;;2.40;99.90;;;;;;5053254;28;20213;-55
2023/12/18 02:11:51;;;;;;;9.50;7.90;;;2.40;99.90;;;;;;5053319;28;20271;-55
2023/12/18 02:14:18;;;;;;;9.30;7.60;;;2.40;99.90;;;;;;5053476;28;20201;-55
2023/12/18 02:16:44;;;;;;;12.00;9.70;;;2.40;99.90;;;;;;5037374;28;20205;-55
2023/12/18 02:19:23;;;;;;;8.83;7.83;;;2.40;99.90;;;;;;5053068;28;20213;-55
2023/12/18 02:21:50;;;;;;;9.90;7.73;;;2.40;99.90;;;;;;5038467;28;20312;-55
2023/12/18 02:24:18;;;;;;;8.50;7.60;;;2.40;99.90;;;;;;5053220;28;20205;-54
2023/12/18 02:26:45;;;;;;;8.83;7.83;;;2.30;99.90;;;;;;5037111;28;20198;-54
2023/12/18 02:29:12;;;;;;;10.30;8.23;;;2.30;99.90;;;;;;5052907;28;20247;-55
2023/12/18 02:31:40;;;;;;;9.60;7.33;;;2.30;99.90;;;;;;5052827;28;20225;-54
2023/12/18 02:34:07;;;;;;;11.80;8.40;;;2.30;99.90;;;;;;5052864;28;20267;-56
2023/12/18 02:36:33;;;;;;;16.00;11.40;;;2.40;99.90;;;;;;5052736;28;20216;-56
2023/12/18 02:39:00;;;;;;;14.33;9.37;;;2.40;99.90;;;;;;5052698;28;20659;-56
2023/12/18 02:41:28;;;;;;;14.50;11.07;;;2.40;99.90;;;;;;5052673;28;20229;-55
2023/12/18 02:43:56;;;;;;;11.07;8.90;;;2.40;99.90;;;;;;5052827;28;20252;-55
2023/12/18 02:46:23;;;;;;;12.50;9.70;;;2.40;99.90;;;;;;5052842;28;20209;-54
2023/12/18 02:48:49;;;;;;;11.57;8.53;;;2.30;99.90;;;;;;5052511;28;20217;-55
2023/12/18 02:51:16;;;;;;;9.30;7.77;;;2.30;99.90;;;;;;5052407;28;20229;-55
2023/12/18 02:53:43;;;;;;;11.93;9.67;;;2.30;99.90;;;;;;5052495;28;20226;-56
2023/12/18 02:56:09;;;;;;;9.07;8.07;;;2.40;99.90;;;;;;5052727;28;20214;-53
2023/12/18 02:58:37;;;;;;;9.13;7.80;;;2.40;99.90;;;;;;5052469;28;20244;-55
2023/12/18 03:01:04;;;;;;;9.17;7.20;;;2.30;99.90;;;;;;5052281;28;20225;-55
2023/12/18 03:03:31;;;;;;;10.30;7.63;;;2.30;99.90;;;;;;5052044;28;20271;-55
2023/12/18 03:05:57;;;;;;;9.50;8.03;;;2.30;99.90;;;;;;5052638;28;20629;-55
2023/12/18 03:08:24;;;;;;;10.23;8.50;;;2.30;99.90;;;;;;5051290;28;20218;-55
2023/12/18 03:10:52;;;;;;;9.83;7.90;;;2.40;99.90;;;;;;5051976;28;20259;-55
2023/12/18 03:13:18;;;;;;;8.57;7.30;;;2.40;99.90;;;;;;5052185;28;20202;-55
2023/12/18 03:15:46;;;;;;;8.73;7.43;;;2.50;99.90;;;;;;5035819;28;20255;-54
2023/12/18 03:18:13;;;;;;;12.07;9.60;;;2.60;99.90;;;;;;5052052;28;20209;-55
2023/12/18 03:20:40;;;;;;;9.93;8.50;;;2.70;99.90;;;;;;5051856;28;20299;-55
2023/12/18 03:23:06;;;;;;;10.33;8.07;;;2.70;99.90;;;;;;5052094;28;20205;-55
2023/12/18 03:25:33;;;;;;;9.90;7.73;;;2.70;99.90;;;;;;5052009;28;20213;-55
2023/12/18 03:28:00;;;;;;;9.43;7.83;;;2.70;99.90;;;;;;5051798;28;20761;-55
2023/12/18 03:30:26;;;;;;;9.17;7.20;;;2.70;99.90;;;;;;5051629;28;20279;-56
2023/12/18 03:32:55;;;;;;;10.87;8.17;;;2.80;99.90;;;;;;5051687;28;20198;-56
2023/12/18 03:35:22;;;;;;;11.07;8.73;;;2.80;99.90;;;;;;5051749;28;20255;-55
2023/12/18 03:37:48;;;;;;;8.70;7.73;;;2.70;99.90;;;;;;5051816;28;20202;-55
2023/12/18 03:40:15;;;;;;;10.17;7.70;;;2.60;99.90;;;;;;5051476;28;20563;-55
2023/12/18 03:42:42;;;;;;;9.17;7.93;;;2.60;99.90;;;;;;5051540;28;20201;-54
2023/12/18 03:45:09;;;;;;;9.27;7.80;;;2.50;99.90;;;;;;5051505;28;20671;-55
2023/12/18 03:47:36;;;;;;;8.23;7.17;;;2.60;99.90;;;;;;5051372;28;20572;-56
2023/12/18 03:50:05;;;;;;;9.07;7.43;;;2.60;99.90;;;;;;5051332;28;20222;-56
2023/12/18 03:52:32;;;;;;;9.43;7.43;;;2.80;99.90;;;;;;5051554;28;20311;-56
2023/12/18 03:54:59;;;;;;;11.43;7.67;;;2.40;99.90;;;;;;5051651;28;20210;-56
2023/12/18 03:57:26;;;;;;;9.13;7.50;;;2.40;99.90;;;;;;5051376;28;20213;-56
2023/12/18 03:59:54;;;;;;;8.33;7.43;;;2.40;99.90;;;;;;5051131;28;20206;-56
2023/12/18 04:02:20;;;;;;;9.33;7.57;;;2.40;99.90;;;;;;5051278;28;20225;-55
2023/12/18 04:04:48;;;;;;;9.93;7.80;;;2.40;99.90;;;;;;5051499;28;20212;-55
2023/12/18 04:07:16;;;;;;;10.40;7.40;;;2.40;99.90;;;;;;5051369;28;20205;-54
2023/12/18 04:09:43;;;;;;;9.90;8.17;;;2.40;99.90;;;;;;5050896;28;20225;-55
2023/12/18 04:12:09;;;;;;;8.73;7.60;;;2.50;99.90;;;;;;5051192;28;20320;-54
2023/12/18 04:14:36;;;;;;;10.27;7.83;;;2.50;99.90;;;;;;5051266;28;20935;-54
2023/12/18 04:17:03;;;;;;;10.20;7.60;;;2.50;99.90;;;;;;5051268;28;20277;-54
2023/12/18 04:19:29;;;;;;;9.10;7.80;;;2.50;99.90;;;;;;5050796;28;20208;-55
2023/12/18 04:21:56;;;;;;;9.57;8.33;;;2.50;99.90;;;;;;5051108;28;20225;-55
2023/12/18 04:24:24;;;;;;;9.53;7.80;;;2.50;99.90;;;;;;5051002;28;20205;-54
2023/12/18 04:26:51;;;;;;;8.80;7.27;;;2.50;99.90;;;;;;5050915;28;20260;-53
2023/12/18 04:29:17;;;;;;;8.10;7.00;;;2.50;99.90;;;;;;5051066;28;20231;-54
2023/12/18 04:31:44;;;;;;;7.80;7.00;;;2.40;99.90;;;;;;5050958;28;20312;-54
2023/12/18 04:34:11;;;;;;;9.67;7.43;;;2.40;99.90;;;;;;5050931;28;20229;-53
2023/12/18 04:36:38;;;;;;;11.07;7.50;;;2.40;99.90;;;;;;5050819;28;20263;-54
2023/12/18 04:39:05;;;;;;;8.10;6.80;;;2.50;99.90;;;;;;5050604;28;20309;-55
2023/12/18 04:41:33;;;;;;;9.13;7.40;;;2.50;99.90;;;;;;5050456;28;20229;-55
2023/12/18 04:44:00;;;;;;;8.80;7.30;;;2.50;99.90;;;;;;5050759;28;20233;-55
2023/12/18 04:46:26;;;;;;;9.37;7.07;;;2.50;99.90;;;;;;5050689;28;20573;-54
2023/12/18 04:48:53;;;;;;;10.37;7.43;;;2.50;99.90;;;;;;5050726;28;20225;-54
2023/12/18 04:51:20;;;;;;;9.40;6.90;;;2.50;99.90;;;;;;5050489;28;20248;-54
2023/12/18 04:53:47;;;;;;;8.77;6.70;;;2.50;99.90;;;;;;5050510;28;20733;-55
2023/12/18 04:56:13;;;;;;;8.83;6.73;;;2.60;99.90;;;;;;5051053;28;20202;-54
2023/12/18 04:58:41;;;;;;;7.87;6.50;;;2.60;99.90;;;;;;5050538;28;20614;-54
2023/12/18 05:01:09;;;;;;;8.53;6.70;;;2.60;99.90;;;;;;5050482;28;20772;-54
2023/12/18 05:03:36;;;;;;;8.97;6.37;;;2.60;99.90;;;;;;5050448;28;20209;-54
2023/12/18 05:06:03;;;;;;;9.20;6.13;;;2.60;99.90;;;;;;5050582;28;20210;-55
2023/12/18 05:08:30;;;;;;;7.47;6.07;;;2.60;99.90;;;;;;5050207;28;20221;-55
2023/12/18 05:10:56;;;;;;;8.10;6.30;;;2.50;99.90;;;;;;5050363;28;20291;-55
2023/12/18 05:13:23;;;;;;;8.97;6.23;;;2.50;99.90;;;;;;5050565;28;20288;-56
2023/12/18 05:15:52;;;;;;;8.40;6.10;;;2.40;99.90;;;;;;5034123;28;20626;-55
2023/12/18 05:18:19;;;;;;;7.93;6.50;;;2.40;99.90;;;;;;5050531;28;20198;-55
2023/12/18 05:20:45;;;;;;;8.53;6.37;;;2.40;99.90;;;;;;5049939;28;20652;-55
2023/12/18 05:23:12;;;;;;;8.73;6.33;;;2.40;99.90;;;;;;5050047;28;20675;-55
2023/12/18 05:25:39;;;;;;;8.97;6.13;;;2.30;99.90;;;;;;5050191;28;20567;-56
2023/12/18 05:28:06;;;;;;;8.13;6.00;;;2.40;99.90;;;;;;5050295;28;20554;-55
2023/12/18 05:30:34;;;;;;;8.77;6.30;;;2.40;99.90;;;;;;5049968;28;20221;-56
2023/12/18 05:33:02;;;;;;;9.63;6.33;;;2.30;99.90;;;;;;5053291;28;20288;-54
2023/12/18 05:35:29;;;;;;;8.83;6.23;;;2.30;99.90;;;;;;5054010;28;20296;-55
2023/12/18 05:37:56;;;;;;;8.47;6.70;;;2.30;99.90;;;;;;5054145;28;20201;-55
2023/12/18 05:40:22;;;;;;;10.30;7.20;;;2.30;99.90;;;;;;5053843;28;20271;-54
2023/12/18 05:42:49;;;;;;;8.00;6.67;;;2.30;99.90;;;;;;5053706;28;20205;-54
2023/12/18 05:45:17;;;;;;;7.83;6.17;;;2.30;99.90;;;;;;5054025;28;20259;-53
2023/12/18 05:47:43;;;;;;;7.67;6.37;;;2.40;99.90;;;;;;5053864;28;20202;-55
2023/12/18 05:50:12;;;;;;;9.93;7.47;;;2.40;99.90;;;;;;5053428;28;20222;-54
2023/12/18 05:52:39;;;;;;;11.67;8.17;;;2.40;99.90;;;;;;5053724;28;20210;-56
2023/12/18 05:55:07;;;;;;;12.50;9.37;;;2.40;99.90;;;;;;5053597;28;20248;-56
2023/12/18 05:57:34;;;;;;;11.83;9.03;;;2.30;99.90;;;;;;5053659;28;20237;-55
2023/12/18 06:00:00;;;;;;;11.43;7.57;;;2.30;99.90;;;;;;5053178;28;20209;-53
2023/12/18 06:02:27;;;;;;;9.40;7.50;;;2.10;99.90;;;;;;5053087;28;20213;-54
2023/12/18 06:04:54;;;;;;;8.47;7.40;;;1.80;99.90;;;;;;5053429;28;20206;-55
2023/12/18 06:07:22;;;;;;;9.33;6.40;;;1.80;99.90;;;;;;5053432;28;20615;-53
2023/12/18 06:09:48;;;;;;;11.37;7.43;;;1.80;99.90;;;;;;5053100;28;20217;-54
2023/12/18 06:12:15;;;;;;;10.63;7.60;;;2.00;99.90;;;;;;5053018;28;20238;-55
2023/12/18 06:14:42;;;;;;;11.03;7.57;;;2.00;99.90;;;;;;5052980;28;20205;-55
2023/12/18 06:17:10;;;;;;;10.57;6.60;;;2.00;99.90;;;;;;5052669;28;20208;-55
2023/12/18 06:19:36;;;;;;;10.93;7.77;;;1.90;99.90;;;;;;5053006;28;20202;-55
2023/12/18 06:22:03;;;;;;;11.67;7.73;;;1.80;99.90;;;;;;5053034;28;20243;-54
2023/12/18 06:24:31;;;;;;;13.30;7.07;;;1.80;99.90;;;;;;5052875;28;20664;-55
2023/12/18 06:26:58;;;;;;;10.93;7.60;;;1.90;99.90;;;;;;5053048;28;20198;-55
2023/12/18 06:29:27;;;;;;;10.17;7.37;;;2.00;99.90;;;;;;5052811;28;20223;-55
2023/12/18 06:31:54;;;;;;;9.20;6.97;;;2.00;99.90;;;;;;5037186;28;20312;-55
2023/12/18 06:34:20;;;;;;;9.23;7.37;;;2.10;99.90;;;;;;5053036;28;20213;-55
2023/12/18 06:36:47;;;;;;;9.33;7.40;;;2.10;99.90;;;;;;5052937;28;20224;-54
2023/12/18 06:39:14;;;;;;;10.20;7.57;;;2.10;99.90;;;;;;5052508;28;20205;-55
2023/12/18 06:41:42;;;;;;;10.07;7.33;;;2.10;99.90;;;;;;5052618;28;20226;-55
2023/12/18 06:44:09;;;;;;;9.93;7.33;;;2.00;99.90;;;;;;5051248;28;20210;-55
2023/12/18 06:46:35;;;;;;;9.87;7.30;;;2.10;99.90;;;;;;5052537;28;20205;-55
2023/12/18 06:49:02;;;;;;;10.77;7.47;;;2.00;99.90;;;;;;5052631;28;20603;-55
2023/12/18 06:51:29;;;;;;;8.60;7.23;;;2.00;99.90;;;;;;5052472;28;20230;-55
2023/12/18 06:53:56;;;;;;;12.20;7.93;;;2.00;99.90;;;;;;5052503;28;20201;-54
2023/12/18 06:56:22;;;;;;;13.23;8.90;;;2.10;99.90;;;;;;5052487;28;20209;-56
2023/12/18 06:58:50;;;;;;;13.10;7.70;;;2.20;99.90;;;;;;5052080;28;20202;-55
2023/12/18 07:01:17;;;;;;;7.57;6.43;;;2.20;99.90;;;;;;5051969;28;20229;-55
2023/12/18 07:03:44;;;;;;;8.80;7.00;;;2.10;99.90;;;;;;5052382;28;20624;-55
2023/12/18 07:06:11;;;;;;;15.53;7.53;;;2.20;99.90;;;;;;5052362;28;20292;-55
2023/12/18 07:08:37;;;;;;;9.73;7.30;;;2.20;99.90;;;;;;5051790;28;20221;-54
2023/12/18 07:11:04;;;;;;;9.13;7.30;;;2.30;99.90;;;;;;5051786;28;20229;-56
2023/12/18 07:13:31;;;;;;;9.23;7.20;;;2.30;99.90;;;;;;5051812;28;20209;-56
2023/12/18 07:15:59;;;;;;;8.23;6.80;;;2.20;99.90;;;;;;5052225;28;20201;-56
2023/12/18 07:18:26;;;;;;;12.10;6.93;;;2.10;99.90;;;;;;5052041;28;20217;-56
2023/12/18 07:20:52;;;;;;;11.20;8.67;;;2.10;99.90;;;;;;5035468;28;20217;-55
2023/12/18 07:23:19;;;;;;;8.47;6.93;;;2.20;99.90;;;;;;5051975;28;20214;-58
2023/12/18 07:25:46;;;;;;;11.03;7.47;;;2.20;99.90;;;;;;5051847;28;20251;-55
2023/12/18 07:28:12;;;;;;;8.30;6.97;;;2.10;99.90;;;;;;5051739;28;20197;-54
2023/12/18 07:30:39;;;;;;;9.47;6.90;;;2.00;99.90;;;;;;5051430;28;20230;-55
2023/12/18 07:33:07;;;;;;;8.67;7.07;;;2.00;99.90;;;;;;5051713;28;20293;-55
2023/12/18 07:35:34;;;;;;;11.53;7.70;;;2.00;99.90;;;;;;5051692;28;20719;-55
2023/12/18 07:38:01;;;;;;;9.43;6.90;;;2.10;99.90;;;;;;5051466;28;20697;-54
2023/12/18 07:40:27;;;;;;;10.07;7.03;;;2.30;99.90;;;;;;5051221;28;20225;-55
2023/12/18 07:42:54;;;;;;;11.37;7.40;;;2.40;99.90;;;;;;5035286;28;20258;-55
2023/12/18 07:45:21;;;;;;;12.57;8.10;;;2.50;99.90;;;;;;5051366;28;20671;-55
2023/12/18 07:47:47;;;;;;;15.53;8.77;;;2.50;99.90;;;;;;5051419;28;20251;-55
2023/12/18 07:50:16;;;;;;;9.10;7.17;;;2.60;99.90;;;;;;5051064;28;20224;-55
2023/12/18 07:52:43;;;;;;;9.27;7.63;;;2.60;99.90;;;;;;5051192;28;20205;-55
2023/12/18 07:55:10;;;;;;;9.70;7.83;;;2.60;99.90;;;;;;5051268;28;20210;-55
2023/12/18 07:57:36;;;;;;;9.80;7.27;;;2.60;99.90;;;;;;5051522;28;20263;-57
2023/12/18 08:00:04;;;;;;;10.97;7.70;;;2.70;99.90;;;;;;5051157;28;20216;-54
2023/12/18 08:02:30;;;;;;;11.17;7.90;;;2.80;99.90;;;;;;5051166;28;20305;-55
2023/12/18 08:04:57;;;;;;;12.87;8.23;;;2.80;99.90;;;;;;5051145;28;20615;-56
2023/12/18 08:07:25;;;;;;;15.27;8.43;;;2.90;99.90;;;;;;5051108;28;20279;-56
2023/12/18 08:09:52;;;;;;;13.10;9.00;;;3.00;99.90;;;;;;5050564;28;20287;-56
2023/12/18 08:12:19;;;;;;;10.93;7.40;;;3.20;99.90;;;;;;5051116;28;20229;-54
2023/12/18 08:14:45;;;;;;;10.23;7.20;;;3.20;99.90;;;;;;5051302;28;20236;-55
2023/12/18 08:17:12;;;;;;;33.40;23.47;;;3.00;99.90;;;;;;5050824;28;20213;-55
2023/12/18 08:19:39;;;;;;;11.70;8.23;;;2.80;99.90;;;;;;5050623;28;20214;-55
2023/12/18 08:22:06;;;;;;;11.03;8.30;;;2.60;99.90;;;;;;5050736;28;20233;-55
2023/12/18 08:24:34;;;;;;;12.03;7.57;;;2.50;99.90;;;;;;5050975;28;20213;-55
2023/12/18 08:27:02;;;;;;;13.30;7.50;;;2.70;99.90;;;;;;5050877;28;20202;-56
2023/12/18 08:29:29;;;;;;;15.50;8.33;;;3.00;99.90;;;;;;5050761;28;20232;-56
2023/12/18 08:31:56;;;;;;;11.07;7.37;;;3.20;99.90;;;;;;5050539;28;20221;-55
2023/12/18 08:34:22;;;;;;;10.50;7.43;;;3.40;99.90;;;;;;5050662;28;20288;-56
2023/12/18 08:36:49;;;;;;;14.23;8.00;;;3.60;99.90;;;;;;5050429;28;20218;-55
2023/12/18 08:39:16;;;;;;;12.93;8.80;;;3.60;99.90;;;;;;5050504;28;20206;-56
2023/12/18 08:41:46;;;;;;;11.70;7.30;;;3.80;99.90;;;;;;5050446;28;20234;-56
2023/12/18 08:44:12;;;;;;;11.17;8.03;;;3.80;99.90;;;;;;5050595;28;20566;-54
2023/12/18 08:46:39;;;;;;;9.20;7.43;;;3.90;99.90;;;;;;5050664;28;20605;-55
2023/12/18 08:49:06;;;;;;;10.47;8.27;;;3.90;99.90;;;;;;5050491;28;20202;-54
2023/12/18 08:51:33;;;;;;;12.27;7.70;;;4.00;99.90;;;;;;5050345;28;20222;-56
2023/12/18 08:54:04;;;;;;;12.50;8.10;;;4.00;99.90;;;;;;5050782;28;20201;-56
2023/12/18 08:56:31;;;;;;;11.43;8.47;;;4.10;99.90;;;;;;5050495;28;20212;-56
2023/12/18 08:58:59;;;;;;;10.53;8.13;;;4.20;99.90;;;;;;5050577;28;20197;-56
2023/12/18 09:01:26;;;;;;;12.53;9.70;;;4.30;99.90;;;;;;5050393;28;20243;-56
2023/12/18 09:03:52;;;;;;;12.03;8.37;;;4.40;99.90;;;;;;5050156;28;20251;-57
2023/12/18 09:06:20;;;;;;;9.57;8.40;;;4.50;99.90;;;;;;5051278;28;20217;-56
2023/12/18 09:08:47;;;;;;;11.40;7.93;;;4.60;99.90;;;;;;5054493;28;20597;-56
2023/12/18 09:11:14;;;;;;;12.17;8.27;;;4.70;99.90;;;;;;5054259;28;20221;-56
2023/12/18 09:13:40;;;;;;;15.13;8.77;;;4.70;99.90;;;;;;5055077;28;20202;-56
2023/12/18 09:16:08;;;;;;;18.03;11.53;;;4.80;99.90;;;;;;5054262;28;20343;-56
2023/12/18 09:18:35;;;;;;;12.27;8.63;;;4.90;99.90;;;;;;5053947;28;20206;-57
2023/12/18 09:21:02;;;;;;;14.53;8.80;;;5.00;99.90;;;;;;5054399;28;20647;-57
2023/12/18 09:23:29;;;;;;;12.13;9.33;;;5.10;99.90;;;;;;5053951;28;20209;-56
2023/12/18 09:25:55;;;;;;;11.83;8.47;;;5.10;99.90;;;;;;5054097;28;20206;-55
2023/12/18 09:28:22;;;;;;;10.23;8.33;;;5.20;99.90;;;;;;5053914;28;20267;-57
2023/12/18 09:30:49;;;;;;;11.83;8.53;;;5.30;99.90;;;;;;5053469;28;20645;-56
2023/12/18 09:33:17;;;;;;;11.33;8.87;;;5.40;99.90;;;;;;5053587;28;20209;-55
2023/12/18 09:35:44;;;;;;;10.07;8.27;;;5.50;99.90;;;;;;5053683;28;20210;-61
2023/12/18 09:38:11;;;;;;;11.97;8.63;;;5.60;99.90;;;;;;5054001;28;20639;-55
2023/12/18 09:40:37;;;;;;;13.03;7.93;;;5.70;99.90;;;;;;5053233;28;20719;-57
2023/12/18 09:43:05;;;;;;;9.93;8.00;;;5.80;99.90;;;;;;5053552;28;20206;-56
2023/12/18 09:45:32;;;;;;;12.33;8.20;;;5.80;99.90;;;;;;5053578;28;20713;-56
2023/12/18 09:47:59;;;;;;;13.20;7.87;;;5.80;99.90;;;;;;5037708;28;20700;-56
2023/12/18 09:50:28;;;;;;;12.37;7.73;;;5.90;99.90;;;;;;5053461;28;20221;-56
2023/12/18 09:53:02;;;;;;;10.20;8.80;;;5.80;99.90;;;;;;5053266;28;20293;-56
2023/12/18 09:55:31;;;;;;;10.97;7.83;;;5.70;99.90;;;;;;5053290;28;20205;-55
2023/12/18 09:58:00;;;;;;;11.13;7.27;;;5.80;99.90;;;;;;5037353;28;20238;-56
2023/12/18 10:00:28;;;;;;;8.27;7.33;;;5.90;99.90;;;;;;5052985;28;20651;-55
2023/12/18 10:02:56;;;;;;;10.97;7.80;;;6.00;99.90;;;;;;5053350;28;20202;-56
2023/12/18 10:05:22;;;;;;;8.50;6.90;;;6.00;99.90;;;;;;5053468;28;20217;-55
2023/12/18 10:07:51;;;;;;;9.73;7.50;;;6.00;99.90;;;;;;5053331;28;20202;-55
2023/12/18 10:10:18;;;;;;;12.87;7.77;;;6.00;99.90;;;;;;5052738;28;20217;-56
2023/12/18 10:12:47;;;;;;;11.97;7.80;;;6.10;99.90;;;;;;5053423;28;20258;-55
2023/12/18 10:15:14;;;;;;;10.27;8.10;;;6.30;99.90;;;;;;5053221;28;20229;-57
2023/12/18 10:17:42;;;;;;;10.60;7.77;;;6.40;99.90;;;;;;5052986;28;20210;-57
2023/12/18 10:20:10;;;;;;;12.73;9.33;;;6.60;99.90;;;;;;5052971;28;20615;-56
2023/12/18 10:22:36;;;;;;;11.17;7.17;;;6.70;99.90;;;;;;5052993;28;20277;-56
2023/12/18 10:25:05;;;;;;;10.50;7.27;;;6.70;99.90;;;;;;5052791;28;20668;-56
2023/12/18 10:27:32;;;;;;;8.13;6.80;;;6.70;99.90;;;;;;5052911;28;20292;-56
2023/12/18 10:29:59;;;;;;;10.33;7.73;;;6.80;99.90;;;;;;5036694;28;20241;-56
2023/12/18 10:32:27;;;;;;;11.13;6.60;;;6.80;99.90;;;;;;5052727;28;20225;-56
2023/12/18 10:34:55;;;;;;;8.83;7.10;;;6.80;99.90;;;;;;5052824;28;20213;-56
2023/12/18 10:37:23;;;;;;;8.57;6.50;;;6.90;99.90;;;;;;5052855;28;20267;-56
2023/12/18 10:39:51;;;;;;;8.20;7.37;;;7.10;99.90;;;;;;5052492;28;20284;-57
2023/12/18 10:42:27;;;;;;;9.83;7.17;;;7.20;99.90;;;;;;5052513;28;20256;-57
2023/12/18 10:44:58;;;;;;;9.83;7.80;;;7.40;99.90;;;;;;5052350;28;20221;-55
2023/12/18 10:47:26;;;;;;;9.20;6.97;;;7.60;99.90;;;;;;5052675;28;20358;-57
2023/12/18 10:49:55;;;;;;;8.70;6.23;;;7.50;99.90;;;;;;5052186;28;20225;-56
2023/12/18 10:52:24;;;;;;;10.37;7.20;;;7.50;99.90;;;;;;5052169;28;20236;-57
2023/12/18 10:54:52;;;;;;;10.33;6.93;;;7.60;99.90;;;;;;5052489;28;20213;-57
2023/12/18 10:57:21;;;;;;;8.00;7.20;;;7.70;99.90;;;;;;5052564;28;20205;-57
2023/12/18 10:59:50;;;;;;;7.50;6.43;;;7.50;99.90;;;;;;5052127;28;20209;-56
2023/12/18 11:02:18;;;;;;;7.40;6.33;;;7.30;99.90;;;;;;5052158;28;20277;-56
2023/12/18 11:04:46;;;;;;;9.80;7.00;;;7.10;99.90;;;;;;5052040;28;20205;-56
2023/12/18 11:07:14;;;;;;;8.47;6.67;;;7.00;99.90;;;;;;5052413;28;20232;-56
2023/12/18 11:09:41;;;;;;;8.53;6.77;;;7.10;99.90;;;;;;5052000;28;20217;-56
2023/12/18 11:12:09;;;;;;;8.90;6.80;;;7.30;99.90;;;;;;5051725;28;20644;-57
2023/12/18 11:14:49;;;;;;;9.93;7.03;;;7.50;99.90;;;;;;5052000;28;20209;-57
2023/12/18 11:17:27;;;;;;;8.43;6.70;;;7.70;99.90;;;;;;5051795;28;20251;-56
2023/12/18 11:20:02;;;;;;;8.87;6.93;;;7.80;99.90;;;;;;5051622;28;20212;-57
2023/12/18 11:22:40;;;;;;;9.73;6.50;;;8.10;99.90;;;;;;5051878;28;20255;-55
2023/12/18 11:25:08;;;;;;;8.67;6.80;;;8.30;99.90;;;;;;5037230;28;20233;-57
2023/12/18 11:27:35;;;;;;;8.60;6.40;;;8.60;99.90;;;;;;5051723;28;20281;-57
2023/12/18 11:30:04;;;;;;;8.50;6.80;;;8.50;99.90;;;;;;5034778;28;20221;-56
2023/12/18 11:32:41;;;;;;;8.60;6.30;;;8.50;99.90;;;;;;5051825;28;20207;-55
2023/12/18 11:35:10;;;;;;;8.30;6.73;;;8.40;99.90;;;;;;5037742;28;20236;-57
2023/12/18 11:37:42;;;;;;;8.47;7.10;;;8.50;99.90;;;;;;5047339;28;20733;-58
2023/12/18 11:40:40;;;;;;;9.00;7.07;;;8.60;99.90;;;;;;5051173;28;20228;-57
2023/12/18 11:43:08;;;;;;;8.10;6.97;;;8.60;99.90;;;;;;5036838;28;20627;-58
2023/12/18 11:45:41;;;;;;;9.60;7.20;;;8.70;99.90;;;;;;5051265;28;20217;-57
2023/12/18 11:48:10;;;;;;;8.03;6.80;;;8.70;99.90;;;;;;5036960;28;20205;-57
2023/12/18 11:50:38;;;;;;;8.37;6.13;;;8.90;99.90;;;;;;5048556;28;20234;-57
2023/12/18 11:53:18;;;;;;;11.13;6.40;;;9.00;99.90;;;;;;5047293;28;20238;-57
2023/12/18 11:55:51;;;;;;;10.10;6.40;;;9.20;99.90;;;;;;5049181;28;20209;-58
2023/12/18 11:58:19;;;;;;;10.70;6.53;;;9.40;99.90;;;;;;5051267;28;20612;-58
2023/12/18 12:00:48;;;;;;;9.40;6.30;;;9.50;99.90;;;;;;5050896;28;20229;-55
2023/12/18 12:03:15;;;;;;;7.97;7.00;;;9.70;99.90;;;;;;5050933;28;20197;-55
2023/12/18 12:05:43;;;;;;;7.10;6.10;;;9.80;99.90;;;;;;5051086;28;20206;-54
2023/12/18 12:08:10;;;;;;;8.87;6.70;;;9.90;99.90;;;;;;5051209;28;20229;-56
2023/12/18 12:10:41;;;;;;;9.20;6.73;;;10.10;99.90;;;;;;5050555;28;20255;-55
2023/12/18 12:13:08;;;;;;;9.10;6.40;;;10.20;99.90;;;;;;5050968;28;20292;-55
2023/12/18 12:15:35;;;;;;;8.03;6.30;;;10.30;99.90;;;;;;5050791;28;20201;-55
2023/12/18 12:18:04;;;;;;;8.97;6.70;;;10.40;99.90;;;;;;5034943;28;20243;-56
2023/12/18 12:20:31;;;;;;;7.47;6.40;;;10.40;99.90;;;;;;5050778;28;20233;-55
2023/12/18 12:22:58;;;;;;;7.37;6.47;;;10.40;99.90;;;;;;5050920;28;20202;-56
2023/12/18 12:25:25;;;;;;;8.80;6.37;;;10.30;99.90;;;;;;5050990;28;20232;-55
2023/12/18 12:27:52;;;;;;;9.23;6.40;;;10.30;99.90;;;;;;5050753;28;20214;-56
2023/12/18 12:30:19;;;;;;;9.00;6.00;;;10.40;99.90;;;;;;5050305;28;20695;-55
2023/12/18 12:32:46;;;;;;;9.73;6.30;;;10.50;99.90;;;;;;5050716;28;20208;-56
2023/12/18 12:35:16;;;;;;;6.73;5.70;;;10.50;99.90;;;;;;5050927;28;20210;-56
2023/12/18 12:37:42;;;;;;;7.03;5.90;;;10.50;99.90;;;;;;5050705;28;20231;-56
2023/12/18 12:40:11;;;;;;;9.80;5.53;;;10.20;99.90;;;;;;5050729;28;20201;-57
2023/12/18 12:42:38;;;;;;;8.00;5.97;;;10.00;99.90;;;;;;5050677;28;20210;-55
2023/12/18 12:45:06;;;;;;;7.23;6.17;;;9.80;99.90;;;;;;5050675;28;20733;-56
2023/12/18 12:47:33;;;;;;;6.70;6.00;;;9.70;99.90;;;;;;5050779;28;20206;-56
2023/12/18 12:50:04;;;;;;;7.27;5.73;;;9.80;99.90;;;;;;5050268;28;20301;-55
2023/12/18 12:52:35;;;;;;;7.63;5.07;;;9.80;99.90;;;;;;5050792;28;20414;-55